KPPA/PPA METAR and TAF weather

Enter ICAO airport designator
Station Type Date Time Source
KPPA METAR 2020/10/28 18:35 UTC NOAA

KPPA 281835Z AUTO 00000KT 1/2SM FG OVC004 00/00 A2991 RMK AO2 P0003 T00031001


Station Type Date Time Source
KPPA Decoded METAR 2020/10/28 18:35 UTC NOAA

Pampa, Perry Lefors Field Airport, TX, United States (KPPA) 35-36-46N 100-59-46W
Oct 28, 2020 - 02:35 PM EDT / 2020.10.28 1835 UTC
Wind: Calm:0
Visibility: 1/2 mile(s):0
Sky conditions: overcast
Weather: fog
Precipitation last hour: 0.03 inches
Temperature: 32.5 F (0.3 C)
Dew Point: 31.8 F (-0.1 C)
Relative Humidity: 97%
Pressure (altimeter): 29.91 in. Hg (1012 hPa)
ob: KPPA 281835Z AUTO 00000KT 1/2SM FG OVC004 00/00 A2991 RMK AO2 P0003 T00031001
cycle: 18

Station Type Date Time Source
KPPA TAF UTC NOAA

Error!

Example: see airport list